Terminal Aerodrome Forecast
Issued by NWS Grand Forks, ND

Home | Current Version | Previous Version | Text Only | Print | Product List | Glossary On
Versions: 1 2 3 4 5 6 7 8 9 10 11 12 13 14 15 16 17
321
FTUS43 KFGF 230520
TAFGFK
TAF
KGFK 230520Z 2306/2406 32008KT P6SM SCT025
     FM230800 32008KT P6SM BKN025
     FM231100 35008KT P6SM SCT030
     FM240000 05005KT P6SM FEW200
     FM240400 15004KT P6SM SKC=

USA.gov is the U.S. government's official web portal to all federal, state and local government web resources and services.